sensor_id;sensor_type;location;lat;lon;timestamp;pressure;altitude;pressure_sealevel;temperature;humidity
63115;BME280;49208;50.874;6.466;2023-11-19T07:01:49;99888.34;;;10.36;100.00
63115;BME280;49208;50.874;6.466;2023-11-19T07:04:14;99887.53;;;10.34;100.00
63115;BME280;49208;50.874;6.466;2023-11-19T07:06:40;99877.00;;;10.31;100.00
63115;BME280;49208;50.874;6.466;2023-11-19T07:09:08;99875.25;;;10.31;100.00
63115;BME280;49208;50.874;6.466;2023-11-19T07:11:40;99868.19;;;10.29;100.00
63115;BME280;49208;50.874;6.466;2023-11-19T07:14:07;99881.59;;;10.27;100.00
63115;BME280;49208;50.874;6.466;2023-11-19T07:16:33;99901.06;;;10.28;100.00
63115;BME280;49208;50.874;6.466;2023-11-19T07:19:00;99908.19;;;10.27;100.00
63115;BME280;49208;50.874;6.466;2023-11-19T07:21:26;99909.09;;;10.26;100.00
63115;BME280;49208;50.874;6.466;2023-11-19T07:23:53;99915.28;;;10.27;100.00
63115;BME280;49208;50.874;6.466;2023-11-19T07:26:19;99919.69;;;10.28;100.00
63115;BME280;49208;50.874;6.466;2023-11-19T07:28:44;99921.59;;;10.24;100.00
63115;BME280;49208;50.874;6.466;2023-11-19T07:31:10;99925.31;;;10.20;100.00
63115;BME280;49208;50.874;6.466;2023-11-19T07:33:36;99924.53;;;10.18;100.00
63115;BME280;49208;50.874;6.466;2023-11-19T07:36:01;99935.22;;;10.17;100.00
63115;BME280;49208;50.874;6.466;2023-11-19T07:38:27;99928.03;;;10.19;100.00
63115;BME280;49208;50.874;6.466;2023-11-19T07:40:52;99944.81;;;10.21;100.00
63115;BME280;49208;50.874;6.466;2023-11-19T07:43:18;99947.28;;;10.25;100.00
63115;BME280;49208;50.874;6.466;2023-11-19T07:45:43;99946.25;;;10.29;100.00
63115;BME280;49208;50.874;6.466;2023-11-19T07:48:10;99956.69;;;10.34;100.00
63115;BME280;49208;50.874;6.466;2023-11-19T07:50:38;99950.25;;;10.40;100.00
63115;BME280;49208;50.874;6.466;2023-11-19T07:53:03;99961.72;;;10.42;100.00
63115;BME280;49208;50.874;6.466;2023-11-19T07:55:29;99953.47;;;10.48;100.00
63115;BME280;49208;50.874;6.466;2023-11-19T07:57:56;99944.00;;;10.61;100.00
63115;BME280;49208;50.874;6.466;2023-11-19T08:00:21;99953.09;;;10.76;100.00
63115;BME280;49208;50.874;6.466;2023-11-19T08:02:46;99961.50;;;10.87;100.00
63115;BME280;49208;50.874;6.466;2023-11-19T08:05:12;99954.78;;;10.98;100.00
63115;BME280;49208;50.874;6.466;2023-11-19T08:07:37;99954.44;;;11.05;100.00
63115;BME280;49208;50.874;6.466;2023-11-19T08:10:04;99957.56;;;11.15;100.00
63115;BME280;49208;50.874;6.466;2023-11-19T08:12:30;99968.97;;;11.19;100.00
63115;BME280;49208;50.874;6.466;2023-11-19T08:14:56;99979.41;;;11.23;100.00
63115;BME280;49208;50.874;6.466;2023-11-19T08:17:23;99988.81;;;11.30;100.00
63115;BME280;49208;50.874;6.466;2023-11-19T08:19:49;99973.44;;;11.37;100.00
63115;BME280;49208;50.874;6.466;2023-11-19T08:22:14;99957.16;;;11.62;100.00
63115;BME280;49208;50.874;6.466;2023-11-19T08:24:40;99963.91;;;12.25;100.00
63115;BME280;49208;50.874;6.466;2023-11-19T08:27:05;99959.34;;;13.12;98.34
63115;BME280;49208;50.874;6.466;2023-11-19T08:29:31;99949.25;;;13.99;93.61
63115;BME280;49208;50.874;6.466;2023-11-19T08:31:56;99941.06;;;14.62;87.17
63115;BME280;49208;50.874;6.466;2023-11-19T08:34:21;99940.44;;;15.02;83.85
63115;BME280;49208;50.874;6.466;2023-11-19T08:36:51;99939.34;;;15.33;80.03
63115;BME280;49208;50.874;6.466;2023-11-19T08:39:18;99942.47;;;15.54;77.79
63115;BME280;49208;50.874;6.466;2023-11-19T08:41:44;99942.97;;;15.75;78.45
63115;BME280;49208;50.874;6.466;2023-11-19T08:44:09;99943.16;;;15.57;76.96
63115;BME280;49208;50.874;6.466;2023-11-19T08:46:35;99957.09;;;14.92;79.01
63115;BME280;49208;50.874;6.466;2023-11-19T08:49:00;99939.00;;;14.21;82.06
63115;BME280;49208;50.874;6.466;2023-11-19T08:51:25;99950.81;;;13.71;86.26
63115;BME280;49208;50.874;6.466;2023-11-19T08:53:51;99953.75;;;13.34;88.31
63115;BME280;49208;50.874;6.466;2023-11-19T08:56:17;99955.81;;;13.28;89.71
63115;BME280;49208;50.874;6.466;2023-11-19T08:58:42;99957.41;;;13.32;89.10
63115;BME280;49208;50.874;6.466;2023-11-19T09:01:08;99959.09;;;13.34;90.15
63115;BME280;49208;50.874;6.466;2023-11-19T09:03:34;99960.09;;;13.32;90.37
63115;BME280;49208;50.874;6.466;2023-11-19T09:06:00;99959.16;;;13.33;89.96
63115;BME280;49208;50.874;6.466;2023-11-19T09:08:25;99954.19;;;13.43;90.52
63115;BME280;49208;50.874;6.466;2023-11-19T09:10:51;99953.84;;;13.49;91.04
63115;BME280;49208;50.874;6.466;2023-11-19T09:13:16;99948.31;;;13.52;90.53
63115;BME280;49208;50.874;6.466;2023-11-19T09:15:41;99953.41;;;13.41;89.42
63115;BME280;49208;50.874;6.466;2023-11-19T09:18:07;99946.16;;;13.43;91.50
63115;BME280;49208;50.874;6.466;2023-11-19T09:20:33;99952.28;;;13.45;90.71
63115;BME280;49208;50.874;6.466;2023-11-19T09:23:03;99949.41;;;13.48;90.57
63115;BME280;49208;50.874;6.466;2023-11-19T09:25:28;99939.84;;;13.44;89.61
63115;BME280;49208;50.874;6.466;2023-11-19T09:27:54;99948.72;;;13.44;89.41
63115;BME280;49208;50.874;6.466;2023-11-19T09:30:19;99946.22;;;13.41;89.38
63115;BME280;49208;50.874;6.466;2023-11-19T09:32:45;99942.84;;;13.38;88.73
63115;BME280;49208;50.874;6.466;2023-11-19T09:35:10;99954.25;;;13.41;90.74
63115;BME280;49208;50.874;6.466;2023-11-19T09:37:38;99947.16;;;13.40;89.73
63115;BME280;49208;50.874;6.466;2023-11-19T09:40:05;99955.38;;;13.37;88.13
63115;BME280;49208;50.874;6.466;2023-11-19T09:42:44;99957.84;;;13.40;90.21
63115;BME280;49208;50.874;6.466;2023-11-19T09:45:15;99941.59;;;13.45;89.86
63115;BME280;49208;50.874;6.466;2023-11-19T09:47:45;99955.28;;;13.54;92.21
63115;BME280;49208;50.874;6.466;2023-11-19T09:50:18;99940.28;;;13.52;90.80
63115;BME280;49208;50.874;6.466;2023-11-19T09:52:45;99938.31;;;13.56;88.19
63115;BME280;49208;50.874;6.466;2023-11-19T09:55:10;99950.97;;;13.52;90.07
63115;BME280;49208;50.874;6.466;2023-11-19T09:57:38;99927.63;;;13.56;91.19
63115;BME280;49208;50.874;6.466;2023-11-19T10:00:04;99933.75;;;13.58;89.46
63115;BME280;49208;50.874;6.466;2023-11-19T10:02:34;99943.13;;;13.65;91.00
63115;BME280;49208;50.874;6.466;2023-11-19T10:05:04;99950.88;;;13.69;90.58
63115;BME280;49208;50.874;6.466;2023-11-19T10:07:31;99930.78;;;13.62;89.45
63115;BME280;49208;50.874;6.466;2023-11-19T10:10:12;99938.13;;;13.59;87.93
63115;BME280;49208;50.874;6.466;2023-11-19T10:12:40;99939.94;;;13.58;87.95
63115;BME280;49208;50.874;6.466;2023-11-19T10:15:06;99945.22;;;13.60;88.14
63115;BME280;49208;50.874;6.466;2023-11-19T10:17:34;99929.44;;;13.55;88.58
63115;BME280;49208;50.874;6.466;2023-11-19T10:20:00;99935.09;;;13.65;88.69
63115;BME280;49208;50.874;6.466;2023-11-19T10:22:27;99926.38;;;13.77;88.66
63115;BME280;49208;50.874;6.466;2023-11-19T10:24:52;99922.50;;;13.83;88.12
63115;BME280;49208;50.874;6.466;2023-11-19T10:27:18;99925.94;;;13.85;87.13
63115;BME280;49208;50.874;6.466;2023-11-19T10:29:45;99926.13;;;13.82;85.21
63115;BME280;49208;50.874;6.466;2023-11-19T10:32:12;99927.78;;;13.68;85.62
63115;BME280;49208;50.874;6.466;2023-11-19T10:34:38;99926.56;;;13.42;85.41
63115;BME280;49208;50.874;6.466;2023-11-19T10:37:04;99940.53;;;13.31;86.70
63115;BME280;49208;50.874;6.466;2023-11-19T10:39:52;99952.94;;;13.48;87.40
63115;BME280;49208;50.874;6.466;2023-11-19T10:42:21;99937.06;;;13.61;84.31
63115;BME280;49208;50.874;6.466;2023-11-19T10:44:46;99948.66;;;13.62;86.15
63115;BME280;49208;50.874;6.466;2023-11-19T10:47:14;99942.84;;;13.69;87.03
63115;BME280;49208;50.874;6.466;2023-11-19T10:49:39;99931.88;;;13.90;87.07
63115;BME280;49208;50.874;6.466;2023-11-19T10:52:08;99928.50;;;14.02;84.03
63115;BME280;49208;50.874;6.466;2023-11-19T10:54:34;99941.59;;;14.07;83.21
63115;BME280;49208;50.874;6.466;2023-11-19T10:57:01;99943.50;;;14.05;83.17
63115;BME280;49208;50.874;6.466;2023-11-19T10:59:30;99928.34;;;14.05;82.07
63115;BME280;49208;50.874;6.466;2023-11-19T11:01:56;99925.06;;;14.00;81.08
63115;BME280;49208;50.874;6.466;2023-11-19T11:04:25;99943.56;;;13.89;83.50
63115;BME280;49208;50.874;6.466;2023-11-19T11:06:54;99942.78;;;13.71;81.99
63115;BME280;49208;50.874;6.466;2023-11-19T11:09:24;99947.38;;;13.53;84.57
63115;BME280;49208;50.874;6.466;2023-11-19T11:11:51;99945.47;;;13.39;84.71
63115;BME280;49208;50.874;6.466;2023-11-19T11:14:18;99952.28;;;13.27;84.80
63115;BME280;49208;50.874;6.466;2023-11-19T11:16:46;99949.03;;;13.22;86.64
63115;BME280;49208;50.874;6.466;2023-11-19T11:19:13;99939.91;;;13.26;85.26
63115;BME280;49208;50.874;6.466;2023-11-19T11:21:42;99931.81;;;13.44;87.13
63115;BME280;49208;50.874;6.466;2023-11-19T11:27:16;99921.22;;;13.74;85.38
63115;BME280;49208;50.874;6.466;2023-11-19T11:33:11;99916.38;;;13.65;87.71
63115;BME280;49208;50.874;6.466;2023-11-19T11:36:12;99919.94;;;13.49;87.33
63115;BME280;49208;50.874;6.466;2023-11-19T11:38:40;99922.19;;;13.41;88.78
63115;BME280;49208;50.874;6.466;2023-11-19T11:41:23;99909.84;;;13.39;88.37
63115;BME280;49208;50.874;6.466;2023-11-19T11:43:51;99908.19;;;13.36;90.47
63115;BME280;49208;50.874;6.466;2023-11-19T11:49:01;99910.44;;;13.44;91.21
63115;BME280;49208;50.874;6.466;2023-11-19T11:57:13;99913.44;;;13.38;90.48
63115;BME280;49208;50.874;6.466;2023-11-19T12:02:12;99907.75;;;13.44;90.08
63115;BME280;49208;50.874;6.466;2023-11-19T12:04:39;99907.75;;;13.44;89.15
63115;BME280;49208;50.874;6.466;2023-11-19T12:07:14;99907.59;;;13.47;89.89
63115;BME280;49208;50.874;6.466;2023-11-19T12:09:47;99897.78;;;13.47;88.98
63115;BME280;49208;50.874;6.466;2023-11-19T12:12:26;99897.84;;;13.46;89.14
63115;BME280;49208;50.874;6.466;2023-11-19T12:19:59;99896.03;;;13.62;89.10
63115;BME280;49208;50.874;6.466;2023-11-19T12:22:25;99884.38;;;13.63;87.69
63115;BME280;49208;50.874;6.466;2023-11-19T12:24:52;99890.91;;;13.73;88.42
63115;BME280;49208;50.874;6.466;2023-11-19T12:27:19;99890.06;;;13.73;86.90
63115;BME280;49208;50.874;6.466;2023-11-19T12:29:47;99897.22;;;13.72;89.22
63115;BME280;49208;50.874;6.466;2023-11-19T12:32:12;99894.38;;;13.75;87.50
63115;BME280;49208;50.874;6.466;2023-11-19T12:34:38;99893.78;;;13.86;90.28
63115;BME280;49208;50.874;6.466;2023-11-19T12:37:04;99896.47;;;14.01;89.19
63115;BME280;49208;50.874;6.466;2023-11-19T12:39:30;99888.38;;;14.02;87.38
63115;BME280;49208;50.874;6.466;2023-11-19T12:41:56;99886.31;;;13.91;86.54
63115;BME280;49208;50.874;6.466;2023-11-19T12:44:24;99880.63;;;13.82;86.61
63115;BME280;49208;50.874;6.466;2023-11-19T12:47:19;99897.56;;;13.82;87.87
63115;BME280;49208;50.874;6.466;2023-11-19T12:49:55;99889.97;;;13.74;87.53
63115;BME280;49208;50.874;6.466;2023-11-19T12:52:21;99897.50;;;13.68;87.87
63115;BME280;49208;50.874;6.466;2023-11-19T12:54:48;99867.81;;;13.57;85.72
63115;BME280;49208;50.874;6.466;2023-11-19T12:57:14;99868.44;;;13.46;86.99
63115;BME280;49208;50.874;6.466;2023-11-19T12:59:39;99870.25;;;13.45;88.39
63115;BME280;49208;50.874;6.466;2023-11-19T13:02:05;99870.59;;;13.39;88.57
63115;BME280;49208;50.874;6.466;2023-11-19T13:04:32;99867.41;;;13.32;88.50
63115;BME280;49208;50.874;6.466;2023-11-19T13:06:58;99870.25;;;13.29;89.35
63115;BME280;49208;50.874;6.466;2023-11-19T13:09:27;99880.00;;;13.30;88.69
63115;BME280;49208;50.874;6.466;2023-11-19T13:11:54;99868.28;;;13.33;87.13
63115;BME280;49208;50.874;6.466;2023-11-19T13:14:21;99867.50;;;13.31;87.80
63115;BME280;49208;50.874;6.466;2023-11-19T13:16:46;99878.25;;;13.29;86.81
63115;BME280;49208;50.874;6.466;2023-11-19T13:19:12;99869.31;;;13.30;85.60
63115;BME280;49208;50.874;6.466;2023-11-19T13:21:38;99886.13;;;13.32;86.18
63115;BME280;49208;50.874;6.466;2023-11-19T13:24:06;99875.06;;;13.23;85.11
63115;BME280;49208;50.874;6.466;2023-11-19T13:26:31;99876.16;;;13.19;86.84
63115;BME280;49208;50.874;6.466;2023-11-19T13:28:56;99864.19;;;13.10;86.69
63115;BME280;49208;50.874;6.466;2023-11-19T13:31:22;99852.88;;;13.05;85.77
63115;BME280;49208;50.874;6.466;2023-11-19T13:33:48;99862.88;;;13.01;86.59
63115;BME280;49208;50.874;6.466;2023-11-19T13:36:13;99854.09;;;12.99;87.31
63115;BME280;49208;50.874;6.466;2023-11-19T13:38:39;99853.66;;;12.91;88.24
63115;BME280;49208;50.874;6.466;2023-11-19T13:41:07;99859.16;;;12.88;88.46
63115;BME280;49208;50.874;6.466;2023-11-19T13:43:34;99850.44;;;12.84;87.36
63115;BME280;49208;50.874;6.466;2023-11-19T13:46:00;99857.44;;;12.87;87.36
63115;BME280;49208;50.874;6.466;2023-11-19T13:48:25;99849.09;;;12.93;87.85
63115;BME280;49208;50.874;6.466;2023-11-19T13:50:52;99854.00;;;13.01;86.98
63115;BME280;49208;50.874;6.466;2023-11-19T13:53:18;99851.69;;;13.10;87.27
63115;BME280;49208;50.874;6.466;2023-11-19T13:55:43;99841.44;;;13.19;85.40
63115;BME280;49208;50.874;6.466;2023-11-19T13:58:09;99844.59;;;13.25;86.38
63115;BME280;49208;50.874;6.466;2023-11-19T14:00:35;99852.31;;;13.31;84.89
63115;BME280;49208;50.874;6.466;2023-11-19T14:03:01;99848.91;;;13.28;85.22
63115;BME280;49208;50.874;6.466;2023-11-19T14:05:27;99841.00;;;13.26;86.13
63115;BME280;49208;50.874;6.466;2023-11-19T14:07:52;99842.66;;;13.29;85.22
63115;BME280;49208;50.874;6.466;2023-11-19T14:10:19;99850.81;;;13.26;84.81
63115;BME280;49208;50.874;6.466;2023-11-19T14:12:44;99862.81;;;13.19;85.25
63115;BME280;49208;50.874;6.466;2023-11-19T14:15:10;99855.13;;;13.12;85.43
63115;BME280;49208;50.874;6.466;2023-11-19T14:17:38;99867.13;;;13.05;85.16
63115;BME280;49208;50.874;6.466;2023-11-19T14:20:04;99866.81;;;12.94;86.07
63115;BME280;49208;50.874;6.466;2023-11-19T14:22:38;99863.56;;;12.89;86.84
63115;BME280;49208;50.874;6.466;2023-11-19T14:25:04;99866.78;;;12.78;88.28
63115;BME280;49208;50.874;6.466;2023-11-19T14:27:30;99857.56;;;12.68;87.27
63115;BME280;49208;50.874;6.466;2023-11-19T14:29:55;99860.41;;;12.65;87.26
63115;BME280;49208;50.874;6.466;2023-11-19T14:32:21;99858.06;;;12.59;87.82
63115;BME280;49208;50.874;6.466;2023-11-19T14:34:46;99846.84;;;12.52;88.52
63115;BME280;49208;50.874;6.466;2023-11-19T14:37:11;99849.06;;;12.44;88.38
63115;BME280;49208;50.874;6.466;2023-11-19T14:39:37;99855.03;;;12.31;89.91
63115;BME280;49208;50.874;6.466;2023-11-19T14:42:02;99852.06;;;12.20;90.50
63115;BME280;49208;50.874;6.466;2023-11-19T14:44:30;99851.03;;;12.05;91.93
63115;BME280;49208;50.874;6.466;2023-11-19T14:46:56;99848.06;;;11.94;92.57
63115;BME280;49208;50.874;6.466;2023-11-19T14:49:21;99839.41;;;11.89;92.66
63115;BME280;49208;50.874;6.466;2023-11-19T14:51:46;99841.75;;;11.78;93.89
63115;BME280;49208;50.874;6.466;2023-11-19T14:54:12;99843.16;;;11.67;94.51
63115;BME280;49208;50.874;6.466;2023-11-19T14:56:39;99849.03;;;11.57;95.48
63115;BME280;49208;50.874;6.466;2023-11-19T14:59:04;99861.00;;;11.48;96.48
63115;BME280;49208;50.874;6.466;2023-11-19T15:01:30;99850.63;;;11.42;97.41
63115;BME280;49208;50.874;6.466;2023-11-19T15:03:56;99858.75;;;11.39;98.73
63115;BME280;49208;50.874;6.466;2023-11-19T15:06:24;99854.16;;;11.42;99.20
63115;BME280;49208;50.874;6.466;2023-11-19T15:08:52;99853.38;;;11.40;100.00
63115;BME280;49208;50.874;6.466;2023-11-19T15:11:17;99844.66;;;11.37;100.00
63115;BME280;49208;50.874;6.466;2023-11-19T15:13:42;99833.38;;;11.31;100.00
63115;BME280;49208;50.874;6.466;2023-11-19T15:16:08;99840.41;;;11.32;100.00
63115;BME280;49208;50.874;6.466;2023-11-19T15:18:37;99838.03;;;11.26;100.00
63115;BME280;49208;50.874;6.466;2023-11-19T15:21:03;99840.06;;;11.21;100.00
63115;BME280;49208;50.874;6.466;2023-11-19T15:23:28;99832.31;;;11.17;100.00
63115;BME280;49208;50.874;6.466;2023-11-19T15:25:54;99830.72;;;11.12;100.00
63115;BME280;49208;50.874;6.466;2023-11-19T15:28:20;99819.41;;;11.07;100.00
63115;BME280;49208;50.874;6.466;2023-11-19T15:30:47;99819.69;;;11.01;100.00
63115;BME280;49208;50.874;6.466;2023-11-19T15:33:12;99824.53;;;10.93;100.00
63115;BME280;49208;50.874;6.466;2023-11-19T15:35:37;99838.91;;;10.89;100.00
63115;BME280;49208;50.874;6.466;2023-11-19T15:38:04;99833.09;;;10.81;100.00
63115;BME280;49208;50.874;6.466;2023-11-19T15:40:30;99827.06;;;10.77;100.00
63115;BME280;49208;50.874;6.466;2023-11-19T15:42:56;99835.41;;;10.69;100.00
63115;BME280;49208;50.874;6.466;2023-11-19T15:45:22;99825.81;;;10.65;100.00
63115;BME280;49208;50.874;6.466;2023-11-19T15:47:49;99824.28;;;10.60;100.00
63115;BME280;49208;50.874;6.466;2023-11-19T15:50:14;99833.50;;;10.52;100.00
63115;BME280;49208;50.874;6.466;2023-11-19T15:52:40;99831.97;;;10.47;100.00
63115;BME280;49208;50.874;6.466;2023-11-19T15:55:05;99825.84;;;10.45;100.00
63115;BME280;49208;50.874;6.466;2023-11-19T15:57:31;99838.38;;;10.43;100.00
63115;BME280;49208;50.874;6.466;2023-11-19T15:59:58;99842.63;;;10.47;100.00
63115;BME280;49208;50.874;6.466;2023-11-19T16:02:23;99846.06;;;10.49;100.00
63115;BME280;49208;50.874;6.466;2023-11-19T16:04:48;99849.47;;;10.52;100.00
63115;BME280;49208;50.874;6.466;2023-11-19T16:07:15;99843.78;;;10.60;100.00
63115;BME280;49208;50.874;6.466;2023-11-19T16:09:40;99840.00;;;10.66;100.00
63115;BME280;49208;50.874;6.466;2023-11-19T16:12:07;99835.41;;;10.69;100.00
63115;BME280;49208;50.874;6.466;2023-11-19T16:14:36;99844.13;;;10.73;100.00
63115;BME280;49208;50.874;6.466;2023-11-19T16:17:01;99837.63;;;10.79;99.73
63115;BME280;49208;50.874;6.466;2023-11-19T16:19:27;99840.09;;;10.83;99.64
63115;BME280;49208;50.874;6.466;2023-11-19T16:21:53;99846.91;;;10.89;98.39
63115;BME280;49208;50.874;6.466;2023-11-19T16:24:18;99838.78;;;10.92;97.87
63115;BME280;49208;50.874;6.466;2023-11-19T16:26:43;99830.66;;;10.95;97.60
63115;BME280;49208;50.874;6.466;2023-11-19T16:29:09;99850.06;;;10.97;98.15
63115;BME280;49208;50.874;6.466;2023-11-19T16:31:34;99840.16;;;11.01;97.25
63115;BME280;49208;50.874;6.466;2023-11-19T16:34:00;99857.72;;;11.05;96.88
63115;BME280;49208;50.874;6.466;2023-11-19T16:36:26;99859.44;;;11.06;97.00
63115;BME280;49208;50.874;6.466;2023-11-19T16:38:51;99838.91;;;11.08;96.60
63115;BME280;49208;50.874;6.466;2023-11-19T16:41:20;99839.81;;;11.08;96.58
63115;BME280;49208;50.874;6.466;2023-11-19T16:43:52;99839.94;;;11.05;96.96
63115;BME280;49208;50.874;6.466;2023-11-19T16:46:20;99844.81;;;10.96;96.94
63115;BME280;49208;50.874;6.466;2023-11-19T16:48:45;99854.09;;;10.87;97.05
63115;BME280;49208;50.874;6.466;2023-11-19T16:51:13;99847.06;;;10.86;96.30
63115;BME280;49208;50.874;6.466;2023-11-19T16:53:49;99860.50;;;10.83;96.86
63115;BME280;49208;50.874;6.466;2023-11-19T16:56:15;99851.72;;;10.81;97.15
63115;BME280;49208;50.874;6.466;2023-11-19T16:58:42;99853.59;;;10.79;97.44
63115;BME280;49208;50.874;6.466;2023-11-19T17:01:11;99846.41;;;10.81;97.33
63115;BME280;49208;50.874;6.466;2023-11-19T17:03:37;99856.19;;;10.80;96.90
63115;BME280;49208;50.874;6.466;2023-11-19T17:06:03;99838.41;;;10.81;96.61
63115;BME280;49208;50.874;6.466;2023-11-19T17:08:29;99855.00;;;10.87;96.18
63115;BME280;49208;50.874;6.466;2023-11-19T17:11:01;99852.16;;;10.90;96.15
63115;BME280;49208;50.874;6.466;2023-11-19T17:13:29;99842.25;;;10.94;95.36
63115;BME280;49208;50.874;6.466;2023-11-19T17:15:55;99841.16;;;10.98;95.11
63115;BME280;49208;50.874;6.466;2023-11-19T17:18:21;99841.88;;;11.02;94.72
63115;BME280;49208;50.874;6.466;2023-11-19T17:20:47;99833.81;;;11.03;95.04
63115;BME280;49208;50.874;6.466;2023-11-19T17:23:15;99833.75;;;11.05;94.73
63115;BME280;49208;50.874;6.466;2023-11-19T17:25:40;99848.66;;;11.09;93.99
63115;BME280;49208;50.874;6.466;2023-11-19T17:28:07;99841.38;;;11.12;94.05
63115;BME280;49208;50.874;6.466;2023-11-19T17:30:36;99839.41;;;11.16;93.51
63115;BME280;49208;50.874;6.466;2023-11-19T17:33:02;99838.56;;;11.16;93.71
63115;BME280;49208;50.874;6.466;2023-11-19T17:35:30;99856.34;;;11.15;93.70
63115;BME280;49208;50.874;6.466;2023-11-19T17:37:55;99858.06;;;11.16;93.86
63115;BME280;49208;50.874;6.466;2023-11-19T17:40:21;99841.94;;;11.19;93.46
63115;BME280;49208;50.874;6.466;2023-11-19T17:42:47;99845.53;;;11.18;93.65
63115;BME280;49208;50.874;6.466;2023-11-19T17:45:12;99837.63;;;11.17;94.06
63115;BME280;49208;50.874;6.466;2023-11-19T17:47:39;99835.97;;;11.14;94.43
63115;BME280;49208;50.874;6.466;2023-11-19T17:50:05;99848.41;;;11.13;94.18
63115;BME280;49208;50.874;6.466;2023-11-19T17:52:30;99836.97;;;11.11;94.61
63115;BME280;49208;50.874;6.466;2023-11-19T17:54:57;99832.59;;;11.10;94.86
63115;BME280;49208;50.874;6.466;2023-11-19T17:57:23;99848.72;;;11.07;95.35
63115;BME280;49208;50.874;6.466;2023-11-19T17:59:49;99853.13;;;11.08;95.54
63115;BME280;49208;50.874;6.466;2023-11-19T18:02:16;99843.44;;;11.06;96.58
63115;BME280;49208;50.874;6.466;2023-11-19T18:04:47;99847.91;;;11.05;97.52
63115;BME280;49208;50.874;6.466;2023-11-19T18:07:16;99843.66;;;11.01;99.31
63115;BME280;49208;50.874;6.466;2023-11-19T18:09:45;99835.06;;;10.96;99.43
63115;BME280;49208;50.874;6.466;2023-11-19T18:12:11;99840.38;;;10.96;99.70
63115;BME280;49208;50.874;6.466;2023-11-19T18:14:39;99842.38;;;10.91;99.99
63115;BME280;49208;50.874;6.466;2023-11-19T18:17:05;99836.19;;;10.90;100.00
63115;BME280;49208;50.874;6.466;2023-11-19T18:19:30;99834.38;;;10.91;100.00
63115;BME280;49208;50.874;6.466;2023-11-19T18:21:57;99840.59;;;10.91;100.00
63115;BME280;49208;50.874;6.466;2023-11-19T18:24:23;99839.81;;;10.89;100.00
63115;BME280;49208;50.874;6.466;2023-11-19T18:26:50;99842.53;;;10.88;100.00
63115;BME280;49208;50.874;6.466;2023-11-19T18:29:15;99828.38;;;10.87;100.00
63115;BME280;49208;50.874;6.466;2023-11-19T18:31:43;99837.56;;;10.80;100.00
63115;BME280;49208;50.874;6.466;2023-11-19T18:34:08;99833.25;;;10.78;100.00
63115;BME280;49208;50.874;6.466;2023-11-19T18:36:36;99845.75;;;10.76;100.00
63115;BME280;49208;50.874;6.466;2023-11-19T18:39:05;99837.78;;;10.76;100.00
63115;BME280;49208;50.874;6.466;2023-11-19T18:41:30;99838.56;;;10.78;100.00
63115;BME280;49208;50.874;6.466;2023-11-19T18:43:56;99851.88;;;10.78;100.00
63115;BME280;49208;50.874;6.466;2023-11-19T18:46:21;99829.78;;;10.76;100.00
63115;BME280;49208;50.874;6.466;2023-11-19T18:48:47;99843.94;;;10.76;100.00
63115;BME280;49208;50.874;6.466;2023-11-19T18:51:12;99842.25;;;10.75;100.00
63115;BME280;49208;50.874;6.466;2023-11-19T18:53:42;99848.66;;;10.71;100.00
63115;BME280;49208;50.874;6.466;2023-11-19T18:56:09;99850.34;;;10.72;100.00
63115;BME280;49208;50.874;6.466;2023-11-19T18:58:35;99846.97;;;10.68;100.00
63115;BME280;49208;50.874;6.466;2023-11-19T19:01:00;99847.97;;;10.66;100.00
63115;BME280;49208;50.874;6.466;2023-11-19T19:03:26;99850.84;;;10.61;100.00
63115;BME280;49208;50.874;6.466;2023-11-19T19:05:56;99840.47;;;10.55;100.00
63115;BME280;49208;50.874;6.466;2023-11-19T19:08:21;99836.22;;;10.51;100.00
63115;BME280;49208;50.874;6.466;2023-11-19T19:10:47;99834.63;;;10.47;100.00
63115;BME280;49208;50.874;6.466;2023-11-19T19:13:12;99831.47;;;10.39;100.00
63115;BME280;49208;50.874;6.466;2023-11-19T19:15:37;99836.94;;;10.36;100.00
63115;BME280;49208;50.874;6.466;2023-11-19T19:18:03;99817.63;;;10.30;100.00
63115;BME280;49208;50.874;6.466;2023-11-19T19:20:28;99823.91;;;10.29;100.00
63115;BME280;49208;50.874;6.466;2023-11-19T19:22:54;99830.09;;;10.28;100.00
63115;BME280;49208;50.874;6.466;2023-11-19T19:25:19;99827.59;;;10.25;100.00
63115;BME280;49208;50.874;6.466;2023-11-19T19:27:44;99824.13;;;10.23;100.00
63115;BME280;49208;50.874;6.466;2023-11-19T19:30:10;99828.56;;;10.23;100.00
63115;BME280;49208;50.874;6.466;2023-11-19T19:32:36;99820.69;;;10.21;100.00
63115;BME280;49208;50.874;6.466;2023-11-19T19:35:03;99812.69;;;10.21;100.00
63115;BME280;49208;50.874;6.466;2023-11-19T19:37:29;99830.53;;;10.19;100.00
63115;BME280;49208;50.874;6.466;2023-11-19T19:39:55;99823.53;;;10.17;100.00
63115;BME280;49208;50.874;6.466;2023-11-19T19:42:20;99818.13;;;10.18;100.00
63115;BME280;49208;50.874;6.466;2023-11-19T19:44:48;99824.25;;;10.20;100.00
63115;BME280;49208;50.874;6.466;2023-11-19T19:47:13;99821.53;;;10.22;100.00
63115;BME280;49208;50.874;6.466;2023-11-19T19:49:38;99824.19;;;10.22;100.00
63115;BME280;49208;50.874;6.466;2023-11-19T19:52:04;99814.34;;;10.24;100.00
63115;BME280;49208;50.874;6.466;2023-11-19T19:54:29;99830.16;;;10.27;100.00
63115;BME280;49208;50.874;6.466;2023-11-19T19:56:57;99819.47;;;10.28;100.00
63115;BME280;49208;50.874;6.466;2023-11-19T19:59:22;99823.81;;;10.31;100.00
63115;BME280;49208;50.874;6.466;2023-11-19T20:01:48;99809.59;;;10.32;100.00
63115;BME280;49208;50.874;6.466;2023-11-19T20:04:17;99811.31;;;10.33;100.00
63115;BME280;49208;50.874;6.466;2023-11-19T20:06:42;99807.50;;;10.39;100.00
63115;BME280;49208;50.874;6.466;2023-11-19T20:09:07;99801.13;;;10.43;100.00
63115;BME280;49208;50.874;6.466;2023-11-19T20:11:33;99806.38;;;10.44;100.00
63115;BME280;49208;50.874;6.466;2023-11-19T20:14:01;99804.44;;;10.48;100.00
63115;BME280;49208;50.874;6.466;2023-11-19T20:16:29;99808.59;;;10.54;100.00
63115;BME280;49208;50.874;6.466;2023-11-19T20:18:54;99803.16;;;10.57;100.00